Time;durP1;ratioP1;P1;durP2;ratioP2;P2;SDS_P1;SDS_P2;PMS_P1;PMS_P2;Temp;Humidity;BMP_temperature;BMP_pressure;BME280_temperature;BME280_humidity;BME280_pressure;Samples;Min_cycle;Max_cycle;Signal;HPM_P1;HPM_P2
2023/06/07 00:00:25;;;;;;;4.05;3.33;;;;;;;16.37;88.59;96015.59;6306762;28;20036;-63
2023/06/07 00:03:28;;;;;;;4.72;4.03;;;;;;;16.38;88.58;96003.97;6293483;28;20518;-64
2023/06/07 00:06:32;;;;;;;5.70;4.53;;;;;;;16.38;88.42;95988.03;6294246;28;20040;-64
2023/06/07 00:09:37;;;;;;;6.45;4.55;;;;;;;16.37;88.36;95986.38;6298845;28;20075;-62
2023/06/07 00:12:41;;;;;;;6.53;4.82;;;;;;;16.34;88.19;95984.06;6298548;28;20041;-63
2023/06/07 00:15:47;;;;;;;6.07;4.90;;;;;;;16.31;88.06;95968.44;6301812;28;20470;-63
2023/06/07 00:18:51;;;;;;;6.38;4.90;;;;;;;16.29;88.51;95963.28;6293736;28;20039;-63
2023/06/07 00:21:58;;;;;;;7.47;5.72;;;;;;;16.35;88.22;95961.81;6293964;28;20685;-64
2023/06/07 00:25:04;;;;;;;8.68;5.25;;;;;;;16.29;88.32;95973.88;6293518;28;20044;-63
2023/06/07 00:28:06;;;;;;;5.45;4.40;;;;;;;16.34;88.91;95981.41;6296185;28;20047;-63
2023/06/07 00:31:13;;;;;;;5.65;4.68;;;;;;;16.34;88.53;95973.44;6297190;28;20145;-63
2023/06/07 00:34:19;;;;;;;7.75;5.22;;;;;;;16.28;88.49;95966.09;6294776;28;20048;-63
2023/06/07 00:37:20;;;;;;;4.18;3.80;;;;;;;16.26;88.78;95979.50;6297603;28;20490;-63
2023/06/07 00:40:22;;;;;;;5.47;4.15;;;;;;;16.25;88.91;95991.13;6306937;28;20044;-64
2023/06/07 00:43:26;;;;;;;4.80;3.85;;;;;;;16.29;88.92;95994.28;6303360;28;20056;-63
2023/06/07 00:46:33;;;;;;;4.47;4.00;;;;;;;16.34;88.56;95986.69;6300821;28;20182;-63
2023/06/07 00:49:39;;;;;;;4.80;4.18;;;;;;;16.25;88.39;95971.69;6302027;28;21757;-63
2023/06/07 00:52:46;;;;;;;5.40;4.85;;;;;;;16.26;88.96;95973.38;6297348;28;20040;-63
2023/06/07 00:55:49;;;;;;;5.88;4.47;;;;;;;16.29;88.68;95978.38;6302682;28;20349;-63
2023/06/07 00:58:53;;;;;;;;;;;;;;;16.31;88.17;95979.88;6300382;28;20047;-62
2023/06/07 01:01:55;;;;;;;5.95;4.47;;;;;;;16.29;88.46;95965.09;6305752;28;19923;-63
2023/06/07 01:05:02;;;;;;;4.63;3.97;;;;;;;16.33;88.85;95953.16;6295856;28;20056;-63
2023/06/07 01:08:09;;;;;;;9.32;4.60;;;;;;;16.32;89.02;95946.19;6303494;28;20090;-64
2023/06/07 01:11:16;;;;;;;5.88;4.40;;;;;;;16.36;88.88;95953.69;6296874;28;20041;-63
2023/06/07 01:14:19;;;;;;;4.68;3.95;;;;;;;16.33;88.89;95953.16;6306617;28;20068;-63
2023/06/07 01:17:26;;;;;;;7.18;4.38;;;;;;;16.39;88.51;95941.94;6303770;28;20033;-63
2023/06/07 01:20:29;;;;;;;4.80;3.65;;;;;;;16.37;88.58;95959.84;6304589;28;20043;-64
2023/06/07 01:23:37;;;;;;;4.28;3.70;;;;;;;16.39;88.41;95953.38;6311920;28;20480;-63
2023/06/07 01:26:41;;;;;;;6.88;4.18;;;;;;;16.43;88.14;95959.19;6296907;28;20037;-61
2023/06/07 01:29:45;;;;;;;6.38;5.05;;;;;;;16.46;88.57;95944.78;6299409;28;20036;-63
2023/06/07 01:32:53;;;;;;;9.35;6.15;;;;;;;16.54;88.21;95935.03;6301617;28;20056;-63
2023/06/07 01:36:01;;;;;;;5.30;4.43;;;;;;;16.63;87.79;95937.72;6296973;28;20040;-64
2023/06/07 01:39:03;;;;;;;4.85;3.85;;;;;;;16.69;87.76;95937.06;6304771;28;20135;-62
2023/06/07 01:42:07;;;;;;;4.30;3.63;;;;;;;16.72;87.64;95928.78;6297374;28;20052;-63
2023/06/07 01:45:10;;;;;;;5.20;3.72;;;;;;;16.82;87.79;95932.19;6302372;28;20040;-63
2023/06/07 01:48:17;;;;;;;5.05;3.40;;;;;;;17.06;86.98;95928.75;6302077;28;20492;-64
2023/06/07 01:51:25;;;;;;;4.40;3.45;;;;;;;17.23;86.32;95933.09;6303024;28;20048;-63
2023/06/07 01:54:32;;;;;;;3.92;3.38;;;;;;;17.34;86.04;95921.31;6298766;28;20036;-63
2023/06/07 01:57:50;;;;;;;4.13;3.00;;;;;;;17.51;85.34;95927.47;6299058;28;20040;-63
2023/06/07 02:01:01;;;;;;;7.55;3.53;;;;;;;17.48;84.55;95923.31;6302543;28;20040;-63
2023/06/07 02:04:10;;;;;;;5.78;3.30;;;;;;;17.41;84.92;95911.69;6297427;28;20074;-63
2023/06/07 02:07:23;;;;;;;6.45;3.78;;;;;;;17.48;84.65;95906.53;6303279;28;20052;-63
2023/06/07 02:10:26;;;;;;;;;;;;;;;17.57;84.15;95907.38;6296839;28;20064;-64
2023/06/07 02:13:31;;;;;;;5.57;3.67;;;;;;;17.66;84.23;95893.91;6295635;28;20318;-63
2023/06/07 02:16:37;;;;;;;5.38;3.55;;;;;;;17.79;83.46;95885.44;6303512;28;20075;-64
2023/06/07 02:19:42;;;;;;;5.18;3.78;;;;;;;17.81;83.12;95875.47;6294882;28;20029;-63
2023/06/07 02:22:46;;;;;;;4.20;3.75;;;;;;;17.91;82.32;95881.41;6294831;28;20461;-63
2023/06/07 02:25:47;;;;;;;4.28;3.53;;;;;;;17.89;82.05;95872.78;6307153;28;20111;-63
2023/06/07 02:28:49;;;;;;;4.90;3.63;;;;;;;17.94;81.63;95870.44;6298192;28;20106;-63
2023/06/07 02:31:51;;;;;;;4.90;3.88;;;;;;;18.08;80.09;95881.38;6301051;28;20036;-62
2023/06/07 02:34:53;;;;;;;5.63;3.92;;;;;;;18.13;80.58;95885.19;6295776;28;20503;-63
2023/06/07 02:37:54;;;;;;;6.18;4.55;;;;;;;18.28;79.89;95893.31;6299522;28;20044;-63
2023/06/07 02:40:59;;;;;;;9.32;5.28;;;;;;;18.39;79.53;95886.78;6297873;28;20052;-64
2023/06/07 02:44:03;;;;;;;6.78;5.22;;;;;;;18.51;78.97;95873.91;6299105;28;20044;-64
2023/06/07 02:47:05;;;;;;;6.85;5.55;;;;;;;18.59;78.09;95869.38;6307397;28;20142;-65
2023/06/07 02:50:07;;;;;;;7.32;5.72;;;;;;;18.74;77.87;95882.84;6309828;28;20134;-63
2023/06/07 02:53:11;;;;;;;8.70;5.30;;;;;;;18.82;77.69;95877.47;6295311;28;20045;-62
2023/06/07 02:56:17;;;;;;;7.97;5.78;;;;;;;18.83;76.26;95876.47;6294796;28;20426;-62
2023/06/07 02:59:19;;;;;;;9.48;5.90;;;;;;;18.66;74.26;95864.22;6299131;28;20051;-63
2023/06/07 03:02:21;;;;;;;6.07;5.45;;;;;;;18.31;76.12;95870.84;6295777;28;20411;-62
2023/06/07 03:05:22;;;;;;;8.88;5.88;;;;;;;18.08;76.74;95876.88;6307180;28;20036;-62
2023/06/07 03:08:23;;;;;;;8.13;6.40;;;;;;;17.87;77.31;95874.78;6308664;28;20127;-62
2023/06/07 03:11:27;;;;;;;7.53;6.72;;;;;;;17.77;78.34;95878.59;6310515;28;20036;-61
2023/06/07 03:14:33;;;;;;;10.32;7.03;;;;;;;17.82;78.83;95877.13;6306632;28;20055;-64
2023/06/07 03:17:37;;;;;;;10.90;7.97;;;;;;;18.00;78.54;95878.75;6307381;28;20047;-62
2023/06/07 03:20:38;;;;;;;10.75;7.30;;;;;;;18.10;76.90;95874.06;6298524;28;20040;-63
2023/06/07 03:23:39;;;;;;;6.82;5.60;;;;;;;17.97;75.68;95879.09;6299089;28;20043;-67
2023/06/07 03:26:47;;;;;;;6.90;5.07;;;;;;;17.91;75.02;95889.41;6303817;28;20047;-65
2023/06/07 03:29:51;;;;;;;6.10;5.50;;;;;;;17.98;74.56;95886.09;6301686;28;20510;-65
2023/06/07 03:32:53;;;;;;;7.63;5.97;;;;;;;17.92;74.60;95888.41;6305057;28;20427;-65
2023/06/07 03:35:54;;;;;;;7.05;5.63;;;;;;;18.11;74.68;95899.69;6310379;28;20135;-66
2023/06/07 03:38:56;;;;;;;7.10;5.32;;;;;;;18.08;74.58;95898.19;6294233;28;20036;-66
2023/06/07 03:42:02;;;;;;;6.27;5.13;;;;;;;18.13;73.17;95897.69;6296617;28;20530;-65
2023/06/07 03:45:06;;;;;;;7.40;4.60;;;;;;;18.15;71.98;95922.31;6300986;28;20032;-65
2023/06/07 03:48:13;;;;;;;4.07;3.67;;;;;;;18.12;70.61;95917.34;6294325;28;20036;-66
2023/06/07 03:51:14;;;;;;;4.95;4.30;;;;;;;18.15;71.32;95930.31;6293389;28;20534;-65
2023/06/07 03:54:18;;;;;;;3.58;3.25;;;;;;;18.33;70.29;95938.91;6299043;28;20047;-65
2023/06/07 03:57:22;;;;;;;3.25;2.95;;;;;;;18.24;69.10;95939.09;6302397;28;20044;-67
2023/06/07 04:00:28;;;;;;;3.78;2.55;;;;;;;18.14;68.86;95933.94;6296278;28;20045;-66
2023/06/07 04:03:32;;;;;;;3.00;2.70;;;;;;;18.21;67.96;95945.59;6293985;28;20420;-65
2023/06/07 04:06:39;;;;;;;3.67;2.25;;;;;;;18.24;67.51;95955.91;6297207;28;20044;-65
2023/06/07 04:09:41;;;;;;;2.22;1.83;;;;;;;18.32;65.71;95957.72;6293777;28;20044;-66
2023/06/07 04:12:49;;;;;;;2.03;1.83;;;;;;;18.45;66.02;95973.16;6293960;28;20036;-66
2023/06/07 04:15:52;;;;;;;2.00;1.90;;;;;;;18.73;64.93;95970.91;6305862;28;20047;-65
2023/06/07 04:18:55;;;;;;;3.15;2.05;;;;;;;19.10;64.18;95982.78;6298357;28;20044;-66
2023/06/07 04:21:59;;;;;;;1.98;1.80;;;;;;;19.28;62.71;95981.53;6302089;28;20411;-66
2023/06/07 04:25:06;;;;;;;1.88;1.65;;;;;;;19.25;62.27;95986.41;6298210;28;20052;-65
2023/06/07 04:28:12;;;;;;;1.50;1.30;;;;;;;19.29;61.67;95975.19;6299359;28;20538;-66
2023/06/07 04:31:15;;;;;;;1.95;1.55;;;;;;;19.43;61.27;95972.78;6300845;28;20040;-65
2023/06/07 04:34:17;;;;;;;1.73;1.48;;;;;;;19.69;60.89;95978.63;6298830;28;20047;-66
2023/06/07 04:37:19;;;;;;;2.13;1.70;;;;;;;20.19;58.94;95982.56;6304181;28;20047;-66
2023/06/07 04:40:23;;;;;;;3.92;1.77;;;;;;;20.19;58.74;95985.22;6298375;28;20040;-66
2023/06/07 04:43:27;;;;;;;3.80;1.88;;;;;;;20.42;57.50;95979.81;6300048;28;20048;-64
2023/06/07 04:46:30;;;;;;;2.13;1.58;;;;;;;22.05;53.75;95985.91;6297136;28;20075;-65
2023/06/07 04:49:35;;;;;;;5.05;1.50;;;;;;;23.44;50.35;96012.84;6298251;28;20128;-66
2023/06/07 04:52:39;;;;;;;3.55;1.73;;;;;;;23.59;48.85;96016.22;6312113;28;20028;-66
2023/06/07 04:55:41;;;;;;;3.63;1.80;;;;;;;22.89;48.08;96014.63;6300497;28;20507;-66
2023/06/07 04:58:46;;;;;;;2.20;1.52;;;;;;;22.21;50.10;96023.19;6310243;28;20047;-65
2023/06/07 05:01:49;;;;;;;2.92;1.23;;;;;;;22.28;49.98;96018.75;6301386;28;20040;-66
2023/06/07 05:04:57;;;;;;;1.73;1.10;;;;;;;22.79;48.26;96025.72;6296706;28;20586;-65
2023/06/07 05:08:01;;;;;;;1.75;0.88;;;;;;;22.84;47.71;96032.16;6296372;28;20049;-65
2023/06/07 05:11:03;;;;;;;0.80;0.80;;;;;;;22.47;47.31;96043.19;6291328;28;20057;-66
2023/06/07 05:14:04;;;;;;;3.35;1.20;;;;;;;21.85;47.43;96053.50;6300722;28;20135;-66
2023/06/07 05:17:06;;;;;;;1.27;0.80;;;;;;;21.43;47.83;96052.44;6296508;28;20159;-65
2023/06/07 05:20:11;;;;;;;1.10;0.80;;;;;;;21.19;48.60;96050.03;6304263;28;20044;-65
2023/06/07 05:23:17;;;;;;;3.22;0.80;;;;;;;21.25;48.85;96057.31;6305644;28;20315;-66
2023/06/07 05:26:22;;;;;;;1.98;0.82;;;;;;;21.43;48.42;96051.59;6296969;28;20059;-65
2023/06/07 05:29:23;;;;;;;2.15;0.55;;;;;;;21.14;48.84;96055.09;6295281;28;20449;-66
2023/06/07 05:32:29;;;;;;;0.85;0.70;;;;;;;21.01;49.72;96069.97;6299146;28;20515;-65
2023/06/07 05:35:31;;;;;;;1.33;0.80;;;;;;;20.63;50.06;96067.31;6302974;28;20185;-71
2023/06/07 05:38:39;;;;;;;1.60;0.50;;;;;;;20.79;49.82;96077.03;6302695;28;20048;-65
2023/06/07 05:41:44;;;;;;;1.45;0.50;;;;;;;20.49;50.09;96081.47;6303097;28;20039;-70
2023/06/07 05:44:48;;;;;;;1.10;0.50;;;;;;;20.05;50.31;96079.50;6307359;28;20075;-65
2023/06/07 05:47:55;;;;;;;1.30;0.55;;;;;;;20.07;50.28;96081.97;6305099;28;20044;-64
2023/06/07 05:50:59;;;;;;;1.17;0.40;;;;;;;21.16;48.63;96083.34;6304344;28;20134;-67
2023/06/07 05:54:08;;;;;;;1.88;0.50;;;;;;;22.51;45.22;96098.09;6308288;28;20052;-65
2023/06/07 05:57:12;;;;;;;1.10;0.70;;;;;;;22.94;42.75;96098.03;6307331;28;20088;-64
2023/06/07 06:00:14;;;;;;;2.08;0.50;;;;;;;23.89;41.10;96113.47;6304186;28;20042;-63
2023/06/07 06:03:20;;;;;;;1.27;0.40;;;;;;;25.09;39.26;96116.31;6298840;28;20053;-65
2023/06/07 06:06:24;;;;;;;0.65;0.43;;;;;;;27.51;34.62;96122.63;6301168;28;20037;-64
2023/06/07 06:09:27;;;;;;;0.52;0.30;;;;;;;29.91;30.88;96133.41;6296623;28;20044;-70
2023/06/07 06:12:31;;;;;;;1.83;0.45;;;;;;;28.96;30.98;96134.50;6305368;28;20040;-68
2023/06/07 06:15:36;;;;;;;1.50;0.30;;;;;;;28.86;31.21;96128.81;6304945;28;20032;-65
2023/06/07 06:18:42;;;;;;;0.80;0.20;;;;;;;30.62;27.92;96146.75;6311404;28;20460;-65
2023/06/07 06:21:45;;;;;;;0.30;0.30;;;;;;;32.10;26.08;96151.81;6308491;28;20032;-65
2023/06/07 06:24:53;;;;;;;1.98;0.30;;;;;;;34.30;24.12;96155.53;6301549;28;20040;-66
2023/06/07 06:27:59;;;;;;;0.28;0.20;;;;;;;35.75;22.22;96150.75;6307471;28;20410;-65
2023/06/07 06:31:06;;;;;;;0.45;0.20;;;;;;;38.38;19.90;96174.94;6304896;28;20044;-66
2023/06/07 06:34:13;;;;;;;4.55;0.30;;;;;;;38.26;17.80;96165.50;6289108;28;20036;-66
2023/06/07 06:37:20;;;;;;;0.22;0.13;;;;;;;35.84;19.62;96161.97;6297764;28;20052;-67
2023/06/07 06:40:30;;;;;;;0.68;0.13;;;;;;;35.91;20.99;96163.31;6302238;28;20491;-66
2023/06/07 06:43:35;;;;;;;0.20;0.20;;;;;;;38.15;18.67;96170.31;6306655;28;20047;-66
2023/06/07 06:46:38;;;;;;;1.55;0.52;;;;;;;39.43;17.22;96174.03;6303881;28;20116;-66
2023/06/07 06:49:45;;;;;;;2.03;0.35;;;;;;;39.04;17.36;96170.53;6307031;28;20153;-67
2023/06/07 06:52:50;;;;;;;0.20;0.10;;;;;;;38.56;16.85;96176.16;6306677;28;20039;-66
2023/06/07 06:55:54;;;;;;;0.25;0.10;;;;;;;37.40;18.03;96171.59;6303560;28;20044;-66
2023/06/07 06:59:04;;;;;;;0.57;0.20;;;;;;;36.88;19.11;96175.78;6303228;28;20052;-66
2023/06/07 07:02:05;;;;;;;0.55;0.20;;;;;;;34.01;21.28;96157.84;6300624;28;20132;-65
2023/06/07 07:05:10;;;;;;;1.92;0.28;;;;;;;32.53;22.77;96155.59;6301628;28;20060;-65
2023/06/07 07:08:19;;;;;;;0.80;0.30;;;;;;;33.80;21.83;96170.56;6307381;28;20053;-66
2023/06/07 07:11:26;;;;;;;0.65;0.32;;;;;;;34.82;21.15;96179.19;6301625;28;20040;-66
2023/06/07 07:14:30;;;;;;;0.20;0.20;;;;;;;36.01;19.16;96167.97;6302639;28;20036;-66
2023/06/07 07:17:45;;;;;;;0.93;0.20;;;;;;;36.45;19.00;96174.66;6305310;28;20043;-66
2023/06/07 07:20:48;;;;;;;1.63;0.20;;;;;;;36.18;19.23;96178.63;6304998;28;20051;-66
2023/06/07 07:23:55;;;;;;;0.47;0.20;;;;;;;35.37;19.29;96174.88;6304599;28;20047;-67
2023/06/07 07:27:03;;;;;;;0.32;0.25;;;;;;;34.58;20.52;96185.16;6305566;28;20048;-65
2023/06/07 07:30:09;;;;;;;0.25;0.20;;;;;;;35.10;19.81;96188.81;6303815;28;20064;-66
2023/06/07 07:33:13;;;;;;;0.88;0.30;;;;;;;35.71;19.48;96188.81;6298279;28;20040;-65
2023/06/07 07:36:21;;;;;;;1.70;0.47;;;;;;;35.63;19.90;96194.84;6298895;28;20439;-66
2023/06/07 07:39:27;;;;;;;0.30;0.30;;;;;;;35.31;19.88;96208.81;6296912;28;20052;-66
2023/06/07 07:42:31;;;;;;;0.50;0.30;;;;;;;35.72;19.43;96211.53;6295995;28;20051;-67
2023/06/07 07:45:35;;;;;;;1.00;0.30;;;;;;;33.14;21.67;96212.59;6302810;28;20453;-66
2023/06/07 07:48:45;;;;;;;0.60;0.50;;;;;;;32.36;22.46;96204.66;6309973;28;20032;-66
2023/06/07 07:51:54;;;;;;;1.00;0.60;;;;;;;31.75;22.97;96204.63;6305356;28;20032;-66
2023/06/07 07:54:58;;;;;;;0.75;0.55;;;;;;;33.02;22.06;96190.97;6303910;28;20615;-65
2023/06/07 07:58:02;;;;;;;1.92;0.77;;;;;;;34.80;20.20;96220.47;6304005;28;20048;-66
2023/06/07 08:01:08;;;;;;;1.75;0.70;;;;;;;35.44;19.42;96224.69;6306364;28;20448;-66
2023/06/07 08:04:13;;;;;;;2.67;0.68;;;;;;;33.48;21.29;96217.78;6302285;28;20146;-65
2023/06/07 08:07:19;;;;;;;3.47;0.60;;;;;;;33.57;21.16;96223.63;6305266;28;20040;-66
2023/06/07 08:10:21;;;;;;;3.28;1.00;;;;;;;34.73;20.45;96235.47;6307291;28;20202;-66
2023/06/07 08:13:28;;;;;;;1.40;0.70;;;;;;;35.10;19.75;96238.03;6304379;28;20036;-65
2023/06/07 08:16:35;;;;;;;1.00;0.80;;;;;;;34.27;20.27;96235.25;6306740;28;20032;-66
2023/06/07 08:19:39;;;;;;;1.25;0.88;;;;;;;31.22;23.57;96238.56;6304744;28;20125;-66
2023/06/07 08:22:42;;;;;;;2.28;0.90;;;;;;;31.05;24.16;96243.16;6305306;28;20036;-65
2023/06/07 08:25:45;;;;;;;1.52;0.90;;;;;;;32.20;22.81;96249.91;6304434;28;20517;-66
2023/06/07 08:28:51;;;;;;;1.20;1.10;;;;;;;33.40;20.81;96251.81;6304324;28;20055;-65
2023/06/07 08:31:57;;;;;;;2.05;0.98;;;;;;;32.41;22.18;96236.56;6302441;28;20048;-65
2023/06/07 08:35:03;;;;;;;1.70;0.63;;;;;;;32.46;22.23;96252.16;6301952;28;20134;-65
2023/06/07 08:38:08;;;;;;;2.58;1.20;;;;;;;31.35;23.12;96269.22;6305707;28;20032;-64
2023/06/07 08:41:13;;;;;;;1.50;1.27;;;;;;;29.14;24.81;96249.25;6305069;28;20663;-67
2023/06/07 08:44:15;;;;;;;2.20;1.40;;;;;;;27.51;27.58;96262.31;6305221;28;20578;-67
2023/06/07 08:47:20;;;;;;;2.87;1.60;;;;;;;27.46;27.84;96270.25;6303338;28;20052;-66
2023/06/07 08:50:22;;;;;;;3.33;1.17;;;;;;;27.08;28.55;96260.34;6304222;28;20498;-65
2023/06/07 08:53:29;;;;;;;1.67;1.20;;;;;;;27.69;27.73;96270.50;6301137;28;20059;-65
2023/06/07 08:56:33;;;;;;;1.40;1.15;;;;;;;27.00;28.33;96266.00;6306178;28;20048;-66
2023/06/07 08:59:38;;;;;;;2.08;1.30;;;;;;;28.21;26.94;96257.50;6306349;28;20123;-64
2023/06/07 09:02:40;;;;;;;2.70;1.20;;;;;;;28.46;26.18;96270.16;6301807;28;20048;-65
2023/06/07 09:05:41;;;;;;;2.60;1.10;;;;;;;27.38;27.00;96270.56;6305759;28;20600;-65
2023/06/07 09:08:46;;;;;;;1.48;1.20;;;;;;;28.35;26.29;96274.41;6307850;28;20319;-65
2023/06/07 09:11:52;;;;;;;2.55;1.20;;;;;;;28.67;25.59;96274.25;6306259;28;20063;-65
2023/06/07 09:14:58;;;;;;;1.13;0.80;;;;;;;28.89;25.50;96274.56;6306742;28;20044;-66
2023/06/07 09:18:05;;;;;;;0.98;0.60;;;;;;;29.20;25.07;96265.41;6305139;28;20075;-66
2023/06/07 09:21:26;;;;;;;1.88;0.90;;;;;;;30.04;24.03;96297.00;6304071;28;20135;-65
2023/06/07 09:24:28;;;;;;;1.58;1.10;;;;;;;30.39;23.16;96284.22;6303728;28;20418;-66
2023/06/07 09:27:30;;;;;;;2.53;1.15;;;;;;;30.14;23.49;96275.50;6305331;28;20185;-65
2023/06/07 09:30:33;;;;;;;0.90;0.73;;;;;;;29.07;24.45;96288.13;6306343;28;20869;-65
2023/06/07 09:33:35;;;;;;;2.17;0.98;;;;;;;28.86;24.89;96302.13;6305761;28;20133;-64
2023/06/07 09:36:48;;;;;;;1.45;1.23;;;;;;;29.51;24.70;96294.09;6284837;28;20047;-64
2023/06/07 09:40:07;;;;;;;1.45;1.17;;;;;;;29.16;24.94;96306.72;6305005;28;20044;-65
2023/06/07 09:43:09;;;;;;;1.33;1.02;;;;;;;27.49;26.51;96296.88;6303356;28;20430;-65
2023/06/07 09:46:13;;;;;;;1.85;1.15;;;;;;;27.07;26.67;96293.81;6311421;28;20040;-63
2023/06/07 09:49:34;;;;;;;2.38;1.10;;;;;;;28.05;26.39;96301.34;6303964;28;20048;-64
2023/06/07 09:52:35;;;;;;;2.25;1.05;;;;;;;28.40;25.40;96298.91;6301652;28;20109;-63
2023/06/07 09:55:43;;;;;;;1.65;0.93;;;;;;;28.16;25.20;96297.91;6300493;28;20122;-65
2023/06/07 09:59:05;;;;;;;5.28;1.30;;;;;;;28.44;25.52;96307.41;6306713;28;20036;-64
2023/06/07 10:02:24;;;;;;;2.28;1.20;;;;;;;28.11;25.87;96305.91;6302295;28;20351;-66
2023/06/07 10:05:29;;;;;;;3.40;1.40;;;;;;;28.00;26.09;96309.34;6304602;28;20043;-64
2023/06/07 10:08:36;;;;;;;1.70;1.25;;;;;;;28.26;25.41;96312.81;6305513;28;20044;-69
2023/06/07 10:11:46;;;;;;;2.45;1.15;;;;;;;27.92;25.56;96296.91;6305038;28;20040;-69
2023/06/07 10:14:52;;;;;;;2.47;1.00;;;;;;;26.40;27.17;96315.66;6294624;28;20040;-68
2023/06/07 10:18:06;;;;;;;1.40;1.08;;;;;;;25.37;28.34;96304.59;6309991;28;20404;-69
2023/06/07 10:21:21;;;;;;;6.50;1.50;;;;;;;24.64;29.23;96304.41;6309343;28;20239;-68
2023/06/07 10:24:55;;;;;;;1.90;1.40;;;;;;;25.23;28.50;96308.31;6314752;28;20434;-68
2023/06/07 10:28:24;;;;;;;2.13;1.13;;;;;;;26.22;27.53;96301.22;6297126;28;20052;-63
2023/06/07 10:31:34;;;;;;;4.13;1.35;;;;;;;26.03;27.51;96309.13;6302701;28;20485;-65
2023/06/07 10:34:41;;;;;;;1.67;1.20;;;;;;;26.12;27.75;96317.81;6308824;28;20578;-67
2023/06/07 10:37:55;;;;;;;2.10;1.33;;;;;;;26.12;28.27;96313.25;6310251;28;20042;-67
2023/06/07 10:41:03;;;;;;;;;;;;;;;26.30;28.13;96333.34;6308388;28;20218;-64
2023/06/07 10:44:07;;;;;;;2.42;1.48;;;;;;;25.84;28.65;96326.16;6296371;28;19920;-63
2023/06/07 10:47:22;;;;;;;3.17;1.40;;;;;;;25.79;28.40;96326.78;6312059;28;20048;-65
2023/06/07 10:50:26;;;;;;;3.83;1.70;;;;;;;25.66;28.50;96324.09;6310834;28;20055;-64
2023/06/07 10:54:00;;;;;;;7.57;1.42;;;;;;;25.29;28.60;96329.03;6301459;28;20519;-64
2023/06/07 10:57:05;;;;;;;2.17;1.48;;;;;;;24.13;30.05;96319.03;6265187;28;20051;-63
2023/06/07 11:00:28;;;;;;;3.60;1.70;;;;;;;23.85;30.98;96339.72;6309659;28;20418;-63
2023/06/07 11:03:39;;;;;;;2.45;1.38;;;;;;;24.53;29.54;96330.03;6303521;28;20035;-62
2023/06/07 11:07:19;;;;;;;4.88;1.48;;;;;;;24.99;29.32;96323.97;6303828;28;20036;-63
2023/06/07 11:10:23;;;;;;;2.78;1.52;;;;;;;25.59;28.80;96324.09;6304849;28;20044;-63
2023/06/07 11:13:45;;;;;;;3.13;1.20;;;;;;;26.16;27.47;96346.03;6303875;28;20130;-64
2023/06/07 11:16:52;;;;;;;3.28;1.40;;;;;;;25.25;27.73;96333.16;6303415;28;20171;-65
2023/06/07 11:20:00;;;;;;;2.05;1.42;;;;;;;24.85;28.34;96333.88;6306706;28;20410;-63
2023/06/07 11:23:34;;;;;;;1.80;1.30;;;;;;;25.18;28.62;96341.22;6312543;28;20032;-63
2023/06/07 11:26:39;;;;;;;2.08;1.52;;;;;;;25.52;28.14;96345.63;6307633;28;20079;-63
2023/06/07 11:29:42;;;;;;;2.10;1.53;;;;;;;25.82;27.75;96356.00;6305562;28;20036;-72
2023/06/07 11:32:44;;;;;;;1.80;1.40;;;;;;;25.33;27.98;96313.28;6309969;28;20588;-63
2023/06/07 11:35:51;;;;;;;2.35;1.30;;;;;;;24.88;28.43;96351.47;6307244;28;20527;-64
2023/06/07 11:38:54;;;;;;;3.90;1.38;;;;;;;24.70;28.77;96345.81;6298549;28;20044;-64
2023/06/07 11:41:57;;;;;;;2.80;1.77;;;;;;;24.35;30.03;96348.53;6304229;28;20511;-63
2023/06/07 11:45:01;;;;;;;;;;;;;;;24.17;30.84;96357.91;6311645;28;20097;-64
2023/06/07 11:48:05;;;;;;;1.77;1.60;;;;;;;23.92;30.71;96365.63;6303911;28;20440;-64
2023/06/07 11:51:09;;;;;;;2.22;1.70;;;;;;;23.74;30.94;96359.91;6307651;28;20040;-64
2023/06/07 11:54:16;;;;;;;3.15;1.80;;;;;;;23.72;29.95;96352.03;6304758;28;20047;-64
2023/06/07 11:57:21;;;;;;;3.63;1.75;;;;;;;23.50;30.52;96347.69;6303989;28;20037;-64
2023/06/07 12:00:27;;;;;;;1.67;1.42;;;;;;;23.35;30.90;96353.13;6306991;28;20090;-63
2023/06/07 12:03:31;;;;;;;4.55;1.77;;;;;;;23.31;31.12;96358.03;6293625;28;20040;-63
2023/06/07 12:06:35;;;;;;;6.55;1.63;;;;;;;23.20;30.92;96353.19;6292936;28;20041;-63
2023/06/07 12:09:43;;;;;;;1.38;1.17;;;;;;;23.16;30.62;96362.66;6280225;28;20127;-63
2023/06/07 12:13:21;;;;;;;4.35;2.30;;;;;;;22.98;30.86;96367.59;6277782;28;20040;-66
2023/06/07 12:16:28;;;;;;;1.73;1.40;;;;;;;23.10;30.22;96360.75;6282696;28;20037;-71
2023/06/07 12:19:31;;;;;;;3.35;1.52;;;;;;;23.12;30.54;96363.22;6282176;28;20056;-70
2023/06/07 12:22:33;;;;;;;3.15;1.60;;;;;;;23.06;30.92;96362.94;6287182;28;20043;-70
2023/06/07 12:25:37;;;;;;;3.25;1.65;;;;;;;23.14;30.86;96361.19;6282991;28;20567;-70
2023/06/07 12:28:47;;;;;;;3.17;1.67;;;;;;;23.15;30.64;96360.97;6283432;28;20045;-75
2023/06/07 12:31:55;;;;;;;2.28;1.77;;;;;;;23.27;30.52;96348.72;6283934;28;20045;-72
2023/06/07 12:35:05;;;;;;;3.22;2.67;;;;;;;23.40;30.24;96347.19;6285880;28;20070;-71
2023/06/07 12:38:20;;;;;;;3.40;1.42;;;;;;;23.26;29.82;96356.97;6280538;28;20159;-72
2023/06/07 12:41:27;;;;;;;1.80;1.33;;;;;;;22.91;30.43;96351.41;6285316;28;20048;-72
2023/06/07 12:44:32;;;;;;;3.22;1.70;;;;;;;22.77;30.03;96347.75;6286970;28;20124;-71
2023/06/07 12:47:37;;;;;;;2.13;1.45;;;;;;;22.66;30.13;96353.59;6291013;28;20116;-72
2023/06/07 12:50:41;;;;;;;2.95;1.60;;;;;;;22.61;30.74;96362.19;6290502;28;20102;-71
2023/06/07 12:53:46;;;;;;;5.60;1.67;;;;;;;22.65;30.83;96357.31;6287871;28;20036;-73
2023/06/07 12:56:48;;;;;;;4.25;1.98;;;;;;;22.59;31.55;96352.66;6286606;28;20049;-71
2023/06/07 12:59:54;;;;;;;3.80;1.65;;;;;;;22.44;32.52;96362.59;6284024;28;20044;-74
2023/06/07 13:02:59;;;;;;;4.53;1.58;;;;;;;22.49;33.00;96358.31;6270819;28;20143;-71
2023/06/07 13:06:06;;;;;;;2.95;1.77;;;;;;;22.45;33.39;96362.41;6284210;28;20511;-72
2023/06/07 13:09:12;;;;;;;3.28;1.50;;;;;;;22.44;33.10;96363.41;6290665;28;20581;-72
2023/06/07 13:12:18;;;;;;;3.63;1.73;;;;;;;22.32;33.71;96368.41;6288045;28;20555;-72
2023/06/07 13:15:20;;;;;;;3.80;2.40;;;;;;;22.20;33.77;96359.19;6289992;28;20497;-72
2023/06/07 13:18:26;;;;;;;2.67;1.75;;;;;;;22.15;33.66;96377.63;6289169;28;20048;-72
2023/06/07 13:21:32;;;;;;;3.03;1.80;;;;;;;22.04;33.91;96370.03;6288884;28;20045;-71
2023/06/07 13:24:36;;;;;;;4.50;1.83;;;;;;;21.90;33.94;96372.50;6281682;28;20044;-71
2023/06/07 13:27:44;;;;;;;2.00;1.80;;;;;;;21.79;33.82;96378.31;6287853;28;20048;-71
2023/06/07 13:30:47;;;;;;;3.85;1.90;;;;;;;21.73;34.19;96379.03;6285940;28;20044;-71
2023/06/07 13:33:48;;;;;;;3.03;1.67;;;;;;;21.68;33.92;96376.94;6288288;28;20521;-71
2023/06/07 13:36:56;;;;;;;2.55;1.65;;;;;;;21.43;34.64;96376.28;6287942;28;20040;-72
2023/06/07 13:40:02;;;;;;;2.15;1.70;;;;;;;21.14;35.17;96368.94;6285065;28;20052;-71
2023/06/07 13:43:07;;;;;;;2.95;2.17;;;;;;;21.06;35.49;96383.22;6285417;28;20094;-72
2023/06/07 13:46:11;;;;;;;3.33;1.70;;;;;;;20.88;36.02;96376.47;6274207;28;20056;-72
2023/06/07 13:49:18;;;;;;;7.35;1.92;;;;;;;20.65;36.32;96384.44;6290908;28;20115;-72
2023/06/07 13:52:22;;;;;;;3.63;1.90;;;;;;;20.78;36.14;96395.41;6289357;28;20045;-71
2023/06/07 13:55:27;;;;;;;3.50;1.92;;;;;;;20.81;35.67;96400.41;6286371;28;20048;-71
2023/06/07 13:58:40;;;;;;;3.58;2.00;;;;;;;20.67;35.61;96398.47;6283774;28;20033;-72
2023/06/07 14:01:45;;;;;;;3.45;2.00;;;;;;;20.45;35.84;96395.50;6283524;28;20636;-71
2023/06/07 14:04:54;;;;;;;4.00;2.08;;;;;;;20.68;34.71;96405.47;6284448;28;20048;-72
2023/06/07 14:08:02;;;;;;;4.93;1.83;;;;;;;20.82;34.00;96413.59;6281716;28;20110;-71
2023/06/07 14:11:11;;;;;;;2.83;1.75;;;;;;;20.97;33.66;96405.63;6287747;28;21159;-70
2023/06/07 14:14:19;;;;;;;2.78;1.60;;;;;;;21.14;33.77;96405.56;6287540;28;20037;-72
2023/06/07 14:17:25;;;;;;;2.22;1.60;;;;;;;21.22;33.71;96413.53;6288088;28;20045;-70
2023/06/07 14:20:34;;;;;;;3.22;1.80;;;;;;;20.97;33.48;96400.28;6269542;28;20044;-72
2023/06/07 14:23:41;;;;;;;2.67;1.88;;;;;;;20.92;33.97;96407.19;6284434;28;20139;-71
2023/06/07 14:26:50;;;;;;;3.80;1.80;;;;;;;20.91;34.27;96406.34;6290511;28;20040;-71
2023/06/07 14:29:57;;;;;;;3.50;1.83;;;;;;;20.97;34.22;96408.31;6280922;28;20048;-72
2023/06/07 14:33:03;;;;;;;1.67;1.58;;;;;;;21.02;34.17;96424.69;6287095;28;20041;-71
2023/06/07 14:36:12;;;;;;;2.97;1.80;;;;;;;20.95;34.32;96418.38;6295018;28;20044;-72